createdAt,value
2019-03-25T00:00:56.008Z,0.00
2019-03-25T00:01:55.980Z,0.00
2019-03-25T00:02:55.954Z,0.00
2019-03-25T00:03:55.938Z,0.00
2019-03-25T00:04:55.912Z,0.00
2019-03-25T00:05:55.884Z,0.00
2019-03-25T00:06:55.864Z,0.00
2019-03-25T00:07:55.839Z,0.00
2019-03-25T00:09:04.863Z,0.00
2019-03-25T00:09:55.792Z,0.00
2019-03-25T00:10:55.770Z,0.00
2019-03-25T00:11:55.750Z,0.00
2019-03-25T00:12:55.724Z,0.00
2019-03-25T00:13:55.698Z,0.00
2019-03-25T00:14:55.682Z,0.00
2019-03-25T00:15:56.564Z,0.00
2019-03-25T00:16:55.634Z,0.00
2019-03-25T00:17:55.605Z,0.00
2019-03-25T00:18:55.585Z,0.00
2019-03-25T00:19:55.558Z,0.00
2019-03-25T00:20:55.591Z,0.00
2019-03-25T00:21:55.513Z,0.00
2019-03-25T00:22:55.492Z,0.00
2019-03-25T00:23:55.465Z,0.00
2019-03-25T00:24:55.441Z,0.00
2019-03-25T00:25:55.420Z,0.00
2019-03-25T00:26:55.406Z,0.00
2019-03-25T00:27:55.374Z,0.00
2019-03-25T00:28:55.353Z,0.00
2019-03-25T00:29:55.325Z,0.00
2019-03-25T00:30:55.307Z,0.00
2019-03-25T00:31:55.284Z,0.00
2019-03-25T00:32:55.257Z,0.00
2019-03-25T00:33:55.233Z,0.00
2019-03-25T00:34:55.211Z,0.00
2019-03-25T00:35:55.189Z,0.00
2019-03-25T00:36:55.166Z,0.00
2019-03-25T00:37:55.143Z,0.00
2019-03-25T00:38:55.123Z,0.00
2019-03-25T00:39:55.095Z,0.00
2019-03-25T00:40:55.069Z,0.00
2019-03-25T00:41:55.045Z,0.00
2019-03-25T00:42:55.025Z,0.00
2019-03-25T00:43:55.000Z,0.00
2019-03-25T00:44:54.984Z,0.00
2019-03-25T00:45:54.957Z,0.00
2019-03-25T00:46:54.936Z,0.00
2019-03-25T00:47:54.913Z,0.00
2019-03-25T00:48:54.887Z,0.00
2019-03-25T00:49:54.867Z,0.00
2019-03-25T00:50:54.840Z,0.00
2019-03-25T00:51:54.817Z,0.00
2019-03-25T00:52:54.795Z,0.00
2019-03-25T00:53:54.769Z,0.00
2019-03-25T00:54:54.749Z,0.00
2019-03-25T00:55:54.727Z,0.00
2019-03-25T00:56:54.701Z,0.00
2019-03-25T00:57:54.679Z,0.00
2019-03-25T00:58:54.657Z,0.00
2019-03-25T00:59:54.635Z,0.00
2019-03-25T01:00:54.609Z,0.00
2019-03-25T01:01:54.581Z,0.00
2019-03-25T01:02:54.557Z,0.00
2019-03-25T01:03:54.539Z,0.00
2019-03-25T01:04:54.515Z,0.00
2019-03-25T01:05:54.495Z,0.00
2019-03-25T01:06:54.471Z,0.00
2019-03-25T01:07:54.447Z,0.00
2019-03-25T01:08:54.421Z,0.00
2019-03-25T01:09:54.395Z,0.00
2019-03-25T01:10:54.382Z,0.00
2019-03-25T01:11:54.353Z,0.00
2019-03-25T01:12:54.327Z,0.00
2019-03-25T01:13:54.317Z,0.00
2019-03-25T01:14:54.283Z,0.00
2019-03-25T01:15:54.259Z,0.00
2019-03-25T01:16:54.239Z,0.00
2019-03-25T01:17:54.214Z,0.00
2019-03-25T01:18:54.192Z,0.00
2019-03-25T01:19:54.171Z,0.00
2019-03-25T01:20:54.147Z,0.00
2019-03-25T01:21:54.122Z,0.00
2019-03-25T01:22:54.098Z,0.00
2019-03-25T01:23:54.072Z,0.00
2019-03-25T01:25:01.731Z,0.00
2019-03-25T01:25:54.031Z,0.00
2019-03-25T01:26:54.003Z,0.00
2019-03-25T01:27:53.981Z,0.00
2019-03-25T01:28:53.960Z,0.00
2019-03-25T01:29:53.933Z,0.00
2019-03-25T01:30:53.916Z,0.00
2019-03-25T01:31:53.897Z,0.00
2019-03-25T01:32:53.867Z,0.00
2019-03-25T01:33:53.844Z,0.00
2019-03-25T01:34:53.818Z,0.00
2019-03-25T01:35:53.798Z,0.00
2019-03-25T01:36:53.776Z,0.00
2019-03-25T01:37:53.752Z,0.00
2019-03-25T01:38:53.729Z,0.00
2019-03-25T01:39:53.709Z,0.00
2019-03-25T01:40:53.683Z,0.00
2019-03-25T01:41:53.659Z,0.00
2019-03-25T01:42:53.633Z,0.00
2019-03-25T01:43:53.612Z,0.00
2019-03-25T01:44:53.584Z,0.00
2019-03-25T01:45:53.580Z,0.00
2019-03-25T01:46:53.550Z,0.00
2019-03-25T01:47:53.522Z,0.00
2019-03-25T01:48:53.492Z,0.00
2019-03-25T01:49:53.476Z,0.00
2019-03-25T01:50:53.446Z,0.00
2019-03-25T01:51:53.428Z,0.00
2019-03-25T01:52:53.402Z,0.00
2019-03-25T01:53:53.377Z,0.00
2019-03-25T01:54:53.366Z,0.00
2019-03-25T01:55:53.336Z,0.00
2019-03-25T01:56:53.312Z,0.00
2019-03-25T01:57:53.288Z,0.00
2019-03-25T01:58:53.271Z,0.00
2019-03-25T01:59:53.243Z,0.00
2019-03-25T02:00:53.227Z,0.00
2019-03-25T02:01:53.198Z,0.00
2019-03-25T02:02:53.172Z,0.00
2019-03-25T02:03:53.148Z,0.00
2019-03-25T02:04:53.128Z,0.00
2019-03-25T02:05:53.114Z,0.00
2019-03-25T02:06:53.088Z,0.00
2019-03-25T02:07:53.058Z,0.00
2019-03-25T02:08:53.033Z,0.00
2019-03-25T02:09:53.016Z,0.00
2019-03-25T02:10:52.986Z,0.00
2019-03-25T02:11:52.967Z,0.00
2019-03-25T02:12:52.942Z,0.00
2019-03-25T02:13:52.917Z,0.00
2019-03-25T02:14:52.896Z,0.00
2019-03-25T02:15:52.876Z,0.00
2019-03-25T02:16:52.846Z,0.00
2019-03-25T02:17:52.826Z,0.00
2019-03-25T02:18:52.803Z,0.00
2019-03-25T02:19:52.782Z,0.00
2019-03-25T02:20:52.760Z,0.00
2019-03-25T02:21:52.731Z,0.00
2019-03-25T02:22:52.897Z,0.00
2019-03-25T02:23:52.690Z,0.00
2019-03-25T02:24:52.670Z,0.00
2019-03-25T02:25:52.639Z,0.00
2019-03-25T02:26:52.619Z,0.00
2019-03-25T02:27:52.597Z,0.00
2019-03-25T02:28:52.575Z,0.00
2019-03-25T02:29:52.549Z,0.00
2019-03-25T02:30:52.527Z,0.00
2019-03-25T02:31:52.506Z,0.00
2019-03-25T02:32:52.494Z,0.00
2019-03-25T02:33:52.462Z,0.00
2019-03-25T02:34:52.435Z,0.00
2019-03-25T02:35:52.429Z,0.00
2019-03-25T02:36:52.394Z,0.00
2019-03-25T02:37:52.368Z,0.00
2019-03-25T02:38:52.345Z,0.00
2019-03-25T02:39:52.327Z,0.00
2019-03-25T02:40:52.301Z,0.00
2019-03-25T02:41:52.274Z,0.00
2019-03-25T02:42:52.256Z,0.00
2019-03-25T02:43:52.228Z,0.00
2019-03-25T02:44:52.205Z,0.00
2019-03-25T02:45:52.184Z,0.00
2019-03-25T02:46:52.166Z,0.00
2019-03-25T02:47:52.144Z,0.00
2019-03-25T02:48:52.112Z,0.00
2019-03-25T02:49:52.095Z,0.00
2019-03-25T02:50:52.063Z,0.00
2019-03-25T02:51:52.044Z,0.00
2019-03-25T02:52:52.033Z,0.00
2019-03-25T02:53:52.001Z,0.00
2019-03-25T02:54:51.971Z,0.00
2019-03-25T02:55:51.950Z,0.00
2019-03-25T02:56:51.930Z,0.00
2019-03-25T02:57:51.906Z,0.00
2019-03-25T02:58:51.880Z,0.00
2019-03-25T02:59:51.860Z,0.00
2019-03-25T03:00:51.843Z,0.00
2019-03-25T03:01:51.821Z,0.00
2019-03-25T03:02:51.790Z,0.00
2019-03-25T03:03:51.783Z,0.00
2019-03-25T03:04:51.752Z,0.00
2019-03-25T03:05:51.720Z,0.00
2019-03-25T03:06:51.724Z,0.00
2019-03-25T03:07:51.682Z,0.00
2019-03-25T03:08:51.654Z,0.00
2019-03-25T03:09:51.628Z,0.00
2019-03-25T03:10:51.608Z,0.00
2019-03-25T03:11:51.585Z,0.00
2019-03-25T03:12:51.560Z,0.00
2019-03-25T03:13:51.589Z,0.00
2019-03-25T03:14:51.512Z,0.00
2019-03-25T03:15:51.489Z,0.00
2019-03-25T03:16:51.480Z,0.00
2019-03-25T03:17:51.449Z,0.00
2019-03-25T03:18:51.424Z,0.00
2019-03-25T03:19:51.398Z,0.00
2019-03-25T03:20:51.378Z,0.00
2019-03-25T03:21:51.351Z,0.00
2019-03-25T03:22:51.329Z,0.00
2019-03-25T03:23:51.306Z,0.00
2019-03-25T03:24:51.298Z,0.00
2019-03-25T03:25:57.777Z,0.00
2019-03-25T03:26:51.234Z,0.00
2019-03-25T03:27:51.211Z,0.00
2019-03-25T03:28:51.197Z,0.00
2019-03-25T03:29:51.166Z,0.00
2019-03-25T03:30:51.144Z,0.00
2019-03-25T03:31:51.122Z,0.00
2019-03-25T03:32:51.101Z,0.00
2019-03-25T03:33:51.086Z,0.00
2019-03-25T03:34:51.069Z,0.00
2019-03-25T03:35:51.032Z,0.00
2019-03-25T03:36:51.004Z,0.00
2019-03-25T03:37:50.988Z,0.00
2019-03-25T03:38:50.959Z,0.00
2019-03-25T03:39:50.932Z,0.00
2019-03-25T03:40:50.923Z,0.00
2019-03-25T03:41:50.890Z,0.00
2019-03-25T03:42:50.868Z,0.00
2019-03-25T03:43:50.843Z,0.00
2019-03-25T03:44:50.831Z,0.00
2019-03-25T03:45:50.793Z,0.00
2019-03-25T03:46:50.773Z,0.00
2019-03-25T03:47:50.751Z,0.00
2019-03-25T03:48:50.734Z,0.00
2019-03-25T03:49:50.706Z,0.00
2019-03-25T03:50:50.681Z,0.00
2019-03-25T03:51:50.656Z,0.00
2019-03-25T03:52:50.636Z,0.00
2019-03-25T03:53:50.610Z,0.00
2019-03-25T03:54:50.596Z,0.00
2019-03-25T03:55:50.562Z,0.00
2019-03-25T03:56:50.546Z,0.00
2019-03-25T03:57:50.517Z,0.00
2019-03-25T03:58:50.544Z,0.00
2019-03-25T03:59:50.480Z,0.00
2019-03-25T04:00:50.465Z,0.00
2019-03-25T04:01:50.447Z,0.00
2019-03-25T04:02:50.401Z,0.00
2019-03-25T04:03:50.378Z,0.00
2019-03-25T04:04:50.357Z,0.00
2019-03-25T04:05:50.341Z,0.00
2019-03-25T04:06:50.312Z,0.00
2019-03-25T04:07:50.357Z,0.00
2019-03-25T04:08:50.263Z,0.00
2019-03-25T04:09:50.239Z,0.00
2019-03-25T04:10:50.218Z,0.00
2019-03-25T04:11:50.200Z,0.00
2019-03-25T04:12:50.173Z,0.00
2019-03-25T04:13:50.261Z,0.00
2019-03-25T04:14:50.135Z,0.00
2019-03-25T04:15:50.105Z,0.00
2019-03-25T04:16:50.079Z,0.00
2019-03-25T04:17:50.054Z,0.00
2019-03-25T04:18:50.032Z,0.00
2019-03-25T04:19:50.004Z,0.00
2019-03-25T04:20:49.986Z,0.00
2019-03-25T04:21:50.001Z,0.00
2019-03-25T04:22:49.955Z,0.00
2019-03-25T04:23:49.968Z,0.00
2019-03-25T04:24:49.906Z,0.00
2019-03-25T04:25:49.870Z,0.00
2019-03-25T04:26:49.847Z,0.00
2019-03-25T04:27:49.822Z,0.00
2019-03-25T04:28:49.810Z,4.00
2019-03-25T04:29:49.775Z,4.00
2019-03-25T04:30:49.760Z,0.00
2019-03-25T04:31:49.737Z,4.00
2019-03-25T04:32:49.707Z,4.00
2019-03-25T04:33:49.686Z,0.00
2019-03-25T04:34:49.664Z,4.00
2019-03-25T04:35:49.640Z,4.00
2019-03-25T04:36:49.614Z,8.00
2019-03-25T04:37:49.592Z,8.00
2019-03-25T04:38:49.566Z,8.00
2019-03-25T04:39:49.545Z,8.00
2019-03-25T04:40:49.524Z,8.00
2019-03-25T04:41:49.507Z,12.00
2019-03-25T04:42:49.478Z,12.00
2019-03-25T04:43:49.454Z,16.00
2019-03-25T04:44:49.432Z,16.00
2019-03-25T04:45:49.404Z,20.00
2019-03-25T04:46:49.384Z,24.00
2019-03-25T04:47:49.358Z,24.00
2019-03-25T04:48:49.339Z,32.00
2019-03-25T04:49:49.313Z,36.00
2019-03-25T04:50:49.289Z,44.00
2019-03-25T04:51:49.275Z,52.00
2019-03-25T04:52:49.247Z,60.00
2019-03-25T04:53:49.219Z,68.00
2019-03-25T04:54:49.200Z,76.00
2019-03-25T04:55:49.172Z,84.00
2019-03-25T04:56:49.151Z,88.00
2019-03-25T04:57:49.124Z,96.00
2019-03-25T04:58:49.107Z,104.00
2019-03-25T04:59:49.082Z,112.00
2019-03-25T05:00:49.063Z,120.00
2019-03-25T05:01:49.047Z,136.00
2019-03-25T05:02:49.007Z,144.00
2019-03-25T05:03:48.987Z,160.00
2019-03-25T05:04:48.962Z,176.00
2019-03-25T05:05:48.942Z,196.00
2019-03-25T05:06:48.920Z,220.00
2019-03-25T05:07:48.897Z,240.00
2019-03-25T05:08:48.871Z,260.00
2019-03-25T05:09:48.843Z,296.00
2019-03-25T05:10:48.826Z,344.00
2019-03-25T05:11:48.801Z,388.00
2019-03-25T05:12:48.778Z,420.00
2019-03-25T05:13:48.754Z,432.00
2019-03-25T05:14:48.734Z,476.00
2019-03-25T05:15:48.709Z,484.00
2019-03-25T05:16:48.686Z,388.00
2019-03-25T05:17:48.664Z,440.00
2019-03-25T05:18:48.637Z,512.00
2019-03-25T05:19:48.617Z,464.00
2019-03-25T05:20:48.596Z,420.00
2019-03-25T05:21:48.568Z,448.00
2019-03-25T05:22:48.543Z,392.00
2019-03-25T05:23:48.523Z,296.00
2019-03-25T05:24:48.501Z,256.00
2019-03-25T05:25:48.484Z,248.00
2019-03-25T05:26:51.324Z,216.00
2019-03-25T05:27:48.434Z,204.00
2019-03-25T05:28:48.414Z,184.00
2019-03-25T05:29:48.384Z,192.00
2019-03-25T05:30:48.361Z,220.00
2019-03-25T05:31:48.343Z,248.00
2019-03-25T05:33:09.229Z,240.00
2019-03-25T05:34:09.210Z,272.00
2019-03-25T05:35:09.187Z,308.00
2019-03-25T05:36:09.161Z,332.00
2019-03-25T05:37:09.138Z,292.00
2019-03-25T05:38:09.115Z,280.00
2019-03-25T05:39:09.091Z,272.00
2019-03-25T05:40:09.068Z,252.00
2019-03-25T05:41:09.045Z,268.00
2019-03-25T05:42:09.021Z,280.00
2019-03-25T05:43:08.999Z,304.00
2019-03-25T05:44:08.973Z,432.00
2019-03-25T05:45:08.954Z,684.00
2019-03-25T05:46:08.935Z,940.00
2019-03-25T05:47:08.910Z,1032.00
2019-03-25T05:48:08.889Z,984.00
2019-03-25T05:49:08.869Z,912.00
2019-03-25T05:50:09.301Z,936.00
2019-03-25T05:51:08.823Z,860.00
2019-03-25T05:52:08.799Z,932.00
2019-03-25T05:53:08.779Z,956.00
2019-03-25T05:54:08.757Z,696.00
2019-03-25T05:55:08.736Z,660.00
2019-03-25T05:56:08.714Z,756.00
2019-03-25T05:57:08.686Z,800.00
2019-03-25T05:58:08.667Z,908.00
2019-03-25T05:59:08.641Z,908.00
2019-03-25T06:00:08.622Z,996.00
2019-03-25T06:01:08.599Z,1160.00
2019-03-25T06:02:08.575Z,1180.00
2019-03-25T06:03:08.557Z,1060.00
2019-03-25T06:04:08.532Z,864.00
2019-03-25T06:05:08.511Z,676.00
2019-03-25T06:06:08.484Z,504.00
2019-03-25T06:07:08.465Z,388.00
2019-03-25T06:08:08.445Z,260.00
2019-03-25T06:09:08.430Z,212.00
2019-03-25T06:10:08.401Z,224.00
2019-03-25T06:11:08.376Z,208.00
2019-03-25T06:12:08.355Z,200.00
2019-03-25T06:13:08.331Z,212.00
2019-03-25T06:14:08.315Z,232.00
2019-03-25T06:15:08.288Z,300.00
2019-03-25T06:16:08.267Z,356.00
2019-03-25T06:17:08.244Z,424.00
2019-03-25T06:18:08.222Z,536.00
2019-03-25T06:19:08.202Z,660.00
2019-03-25T06:20:08.185Z,788.00
2019-03-25T06:21:08.156Z,1000.00
2019-03-25T06:22:08.136Z,1072.00
2019-03-25T06:23:08.113Z,1164.00
2019-03-25T06:24:08.759Z,1204.00
2019-03-25T06:25:08.091Z,1196.00
2019-03-25T06:26:08.045Z,1048.00
2019-03-25T06:27:14.071Z,1000.00
2019-03-25T06:28:08.002Z,920.00
2019-03-25T06:29:07.973Z,860.00
2019-03-25T06:30:07.958Z,748.00
2019-03-25T06:31:07.936Z,712.00
2019-03-25T06:32:07.914Z,608.00
2019-03-25T06:33:12.664Z,596.00
2019-03-25T06:34:07.865Z,572.00
2019-03-25T06:35:09.036Z,460.00
2019-03-25T06:36:07.822Z,472.00
2019-03-25T06:37:07.794Z,448.00
2019-03-25T06:38:07.774Z,464.00
2019-03-25T06:39:07.754Z,440.00
2019-03-25T06:40:07.755Z,536.00
2019-03-25T06:41:07.710Z,456.00
2019-03-25T06:42:07.686Z,468.00
2019-03-25T06:43:07.669Z,540.00
2019-03-25T06:44:07.642Z,696.00
2019-03-25T06:45:07.618Z,752.00
2019-03-25T06:46:07.648Z,792.00
2019-03-25T06:47:07.574Z,864.00
2019-03-25T06:48:07.548Z,836.00
2019-03-25T06:49:07.530Z,800.00
2019-03-25T06:50:07.505Z,720.00
2019-03-25T06:51:07.484Z,684.00
2019-03-25T06:52:07.462Z,584.00
2019-03-25T06:53:07.445Z,636.00
2019-03-25T06:54:07.419Z,616.00
2019-03-25T06:55:07.392Z,640.00
2019-03-25T06:56:07.368Z,632.00
2019-03-25T06:57:07.354Z,620.00
2019-03-25T06:58:07.332Z,616.00
2019-03-25T06:59:07.306Z,692.00
2019-03-25T07:00:07.283Z,728.00
2019-03-25T07:01:07.258Z,732.00
2019-03-25T07:02:07.234Z,728.00
2019-03-25T07:03:07.214Z,720.00
2019-03-25T07:04:07.198Z,644.00
2019-03-25T07:05:07.169Z,744.00
2019-03-25T07:06:07.146Z,732.00
2019-03-25T07:07:07.122Z,792.00
2019-03-25T07:08:07.100Z,768.00
2019-03-25T07:09:07.074Z,792.00
2019-03-25T07:10:07.053Z,928.00
2019-03-25T07:11:07.033Z,880.00
2019-03-25T07:12:07.010Z,996.00
2019-03-25T07:13:06.981Z,1104.00
2019-03-25T07:14:06.960Z,1040.00
2019-03-25T07:15:06.941Z,1032.00
2019-03-25T07:16:06.923Z,888.00
2019-03-25T07:17:06.894Z,952.00
2019-03-25T07:18:06.875Z,1016.00
2019-03-25T07:19:06.852Z,1120.00
2019-03-25T07:20:06.827Z,1076.00
2019-03-25T07:21:06.812Z,972.00
2019-03-25T07:22:06.783Z,1028.00
2019-03-25T07:23:06.757Z,884.00
2019-03-25T07:24:06.737Z,984.00
2019-03-25T07:25:06.721Z,1124.00
2019-03-25T07:26:06.695Z,1124.00
2019-03-25T07:27:06.666Z,1212.00
2019-03-25T07:28:06.645Z,1504.00
2019-03-25T07:29:06.623Z,1284.00
2019-03-25T07:30:06.601Z,1388.00
2019-03-25T07:31:06.578Z,1376.00
2019-03-25T07:32:08.989Z,1792.00
2019-03-25T07:33:06.528Z,1624.00
2019-03-25T07:34:06.504Z,1216.00
2019-03-25T07:35:06.483Z,1208.00
2019-03-25T07:36:06.463Z,1316.00
2019-03-25T07:37:06.440Z,1280.00
2019-03-25T07:38:06.424Z,1296.00
2019-03-25T07:39:06.393Z,1688.00
2019-03-25T07:40:06.374Z,1888.00
2019-03-25T07:41:06.351Z,1696.00
2019-03-25T07:42:06.325Z,1688.00
2019-03-25T07:43:06.305Z,1468.00
2019-03-25T07:44:08.649Z,1336.00
2019-03-25T07:45:06.262Z,1488.00
2019-03-25T07:46:06.233Z,2096.00
2019-03-25T07:47:06.207Z,2176.00
2019-03-25T07:48:06.191Z,2496.00
2019-03-25T07:49:06.167Z,2356.00
2019-03-25T07:50:06.142Z,2112.00
2019-03-25T07:51:06.524Z,1748.00
2019-03-25T07:52:07.147Z,1636.00
2019-03-25T07:53:06.081Z,1556.00
2019-03-25T07:54:06.071Z,1400.00
2019-03-25T07:55:06.054Z,1952.00
2019-03-25T07:56:06.005Z,1640.00
2019-03-25T07:57:05.983Z,1488.00
2019-03-25T07:58:05.960Z,1636.00
2019-03-25T07:59:05.949Z,1628.00
2019-03-25T08:00:13.459Z,2092.00
2019-03-25T08:01:05.892Z,2244.00
2019-03-25T08:02:05.885Z,2264.00
2019-03-25T08:03:05.845Z,1980.00
2019-03-25T08:04:05.846Z,1872.00
2019-03-25T08:05:05.803Z,1604.00
2019-03-25T08:06:05.778Z,1644.00
2019-03-25T08:07:05.771Z,1508.00
2019-03-25T08:08:07.393Z,1648.00
2019-03-25T08:09:05.714Z,1644.00
2019-03-25T08:10:05.716Z,1300.00
2019-03-25T08:11:05.691Z,1304.00
2019-03-25T08:12:05.648Z,1372.00
2019-03-25T08:13:05.687Z,1724.00
2019-03-25T08:14:05.608Z,1976.00
2019-03-25T08:15:05.601Z,2360.00
2019-03-25T08:16:05.549Z,6364.00
2019-03-25T08:17:05.525Z,6616.00
2019-03-25T08:18:05.505Z,7208.00
2019-03-25T08:19:05.479Z,4452.00
2019-03-25T08:20:05.463Z,3944.00
2019-03-25T08:21:05.449Z,3664.00
2019-03-25T08:22:05.411Z,2720.00
2019-03-25T08:23:05.401Z,2332.00
2019-03-25T08:24:05.370Z,2564.00
2019-03-25T08:25:05.347Z,3476.00
2019-03-25T08:26:05.323Z,2776.00
2019-03-25T08:27:05.303Z,2628.00
2019-03-25T08:28:05.279Z,2388.00
2019-03-25T08:29:05.261Z,2428.00
2019-03-25T08:30:05.233Z,2808.00
2019-03-25T08:31:05.210Z,2432.00
2019-03-25T08:32:05.192Z,3200.00
2019-03-25T08:33:05.170Z,2336.00
2019-03-25T08:34:05.148Z,2164.00
2019-03-25T08:35:05.120Z,2720.00
2019-03-25T08:36:05.104Z,3404.00
2019-03-25T08:37:05.076Z,3004.00
2019-03-25T08:38:05.049Z,4108.00
2019-03-25T08:39:05.033Z,4516.00
2019-03-25T08:40:05.011Z,7016.00
2019-03-25T08:41:04.987Z,6696.00
2019-03-25T08:42:04.959Z,7268.00
2019-03-25T08:43:04.942Z,7004.00
2019-03-25T08:44:04.921Z,6684.00
2019-03-25T08:45:04.901Z,9932.00
2019-03-25T08:46:04.880Z,10180.00
2019-03-25T08:47:04.852Z,8732.00
2019-03-25T08:48:04.829Z,10628.00
2019-03-25T08:49:04.808Z,9596.00
2019-03-25T08:50:04.784Z,8252.00
2019-03-25T08:51:04.763Z,5380.00
2019-03-25T08:52:04.743Z,7824.00
2019-03-25T08:53:04.721Z,4864.00
2019-03-25T08:54:04.695Z,3412.00
2019-03-25T08:55:04.672Z,3956.00
2019-03-25T08:56:04.665Z,5516.00
2019-03-25T08:57:04.627Z,4660.00
2019-03-25T08:58:11.901Z,4832.00
2019-03-25T08:59:04.587Z,5316.00
2019-03-25T09:00:04.567Z,4244.00
2019-03-25T09:01:04.541Z,7788.00
2019-03-25T09:02:04.521Z,9104.00
2019-03-25T09:03:04.494Z,9648.00
2019-03-25T09:04:04.472Z,6740.00
2019-03-25T09:05:04.456Z,8232.00
2019-03-25T09:06:04.435Z,10608.00
2019-03-25T09:07:04.411Z,12096.00
2019-03-25T09:08:04.382Z,12232.00
2019-03-25T09:09:04.366Z,12780.00
2019-03-25T09:10:04.340Z,11396.00
2019-03-25T09:11:06.963Z,11396.00
2019-03-25T09:12:04.299Z,8492.00
2019-03-25T09:13:04.280Z,10624.00
2019-03-25T09:14:04.261Z,12816.00
2019-03-25T09:15:04.235Z,11008.00
2019-03-25T09:16:04.211Z,7596.00
2019-03-25T09:17:04.193Z,9176.00
2019-03-25T09:18:04.175Z,9984.00
2019-03-25T09:19:04.146Z,6740.00
2019-03-25T09:20:04.124Z,7152.00
2019-03-25T09:21:04.108Z,8156.00
2019-03-25T09:22:04.089Z,5104.00
2019-03-25T09:23:04.065Z,5600.00
2019-03-25T09:24:04.040Z,3688.00
2019-03-25T09:25:04.027Z,3328.00
2019-03-25T09:26:04.003Z,3580.00
2019-03-25T09:27:03.974Z,2304.00
2019-03-25T09:28:03.961Z,3496.00
2019-03-25T09:29:03.934Z,3780.00
2019-03-25T09:30:03.922Z,6928.00
2019-03-25T09:31:03.894Z,7316.00
2019-03-25T09:32:03.870Z,8236.00
2019-03-25T09:33:03.846Z,8764.00
2019-03-25T09:34:03.830Z,7124.00
2019-03-25T09:35:03.809Z,6756.00
2019-03-25T09:36:03.898Z,7740.00
2019-03-25T09:37:03.759Z,9300.00
2019-03-25T09:38:03.739Z,12036.00
2019-03-25T09:39:03.721Z,8328.00
2019-03-25T09:40:03.698Z,8540.00
2019-03-25T09:41:03.686Z,9220.00
2019-03-25T09:42:03.653Z,9076.00
2019-03-25T09:43:03.637Z,6152.00
2019-03-25T09:44:03.614Z,5080.00
2019-03-25T09:45:03.596Z,7688.00
2019-03-25T09:46:03.572Z,11788.00
2019-03-25T09:47:03.547Z,8908.00
2019-03-25T09:48:03.539Z,7792.00
2019-03-25T09:49:03.514Z,6816.00
2019-03-25T09:50:03.487Z,8428.00
2019-03-25T09:51:03.463Z,5648.00
2019-03-25T09:52:03.448Z,4920.00
2019-03-25T09:53:03.421Z,3668.00
2019-03-25T09:54:03.415Z,3032.00
2019-03-25T09:55:03.385Z,2272.00
2019-03-25T09:56:03.359Z,3168.00
2019-03-25T09:57:03.345Z,2872.00
2019-03-25T09:58:03.322Z,2180.00
2019-03-25T09:59:03.298Z,3108.00
2019-03-25T10:00:03.279Z,3516.00
2019-03-25T10:01:03.251Z,3240.00
2019-03-25T10:02:03.233Z,3396.00
2019-03-25T10:03:03.212Z,3900.00
2019-03-25T10:04:03.192Z,4820.00
2019-03-25T10:05:03.171Z,6368.00
2019-03-25T10:06:03.149Z,8980.00
2019-03-25T10:07:03.126Z,12024.00
2019-03-25T10:08:03.103Z,12348.00
2019-03-25T10:09:03.087Z,11416.00
2019-03-25T10:10:03.065Z,10852.00
2019-03-25T10:11:03.045Z,8336.00
2019-03-25T10:12:03.020Z,6828.00
2019-03-25T10:13:03.002Z,4732.00
2019-03-25T10:14:02.978Z,4928.00
2019-03-25T10:15:02.958Z,3968.00
2019-03-25T10:16:02.938Z,4540.00
2019-03-25T10:17:02.913Z,5304.00
2019-03-25T10:18:02.907Z,4932.00
2019-03-25T10:19:02.871Z,3428.00
2019-03-25T10:20:02.854Z,2524.00
2019-03-25T10:21:02.833Z,2768.00
2019-03-25T10:22:02.810Z,2688.00
2019-03-25T10:23:02.788Z,2324.00
2019-03-25T10:24:02.806Z,2408.00
2019-03-25T10:25:02.752Z,3584.00
2019-03-25T10:26:02.729Z,3948.00
2019-03-25T10:27:02.703Z,4064.00
2019-03-25T10:28:02.683Z,4328.00
2019-03-25T10:29:02.663Z,4904.00
2019-03-25T10:30:02.646Z,5892.00
2019-03-25T10:31:02.618Z,6876.00
2019-03-25T10:32:02.599Z,7808.00
2019-03-25T10:33:02.578Z,8344.00
2019-03-25T10:34:02.563Z,8756.00
2019-03-25T10:35:02.538Z,9496.00
2019-03-25T10:36:02.521Z,12020.00
2019-03-25T10:37:02.497Z,17696.00
2019-03-25T10:38:02.475Z,19104.00
2019-03-25T10:39:02.452Z,27200.00
2019-03-25T10:40:02.434Z,16684.00
2019-03-25T10:41:02.410Z,16096.00
2019-03-25T10:42:02.394Z,16828.00
2019-03-25T10:43:02.378Z,17408.00
2019-03-25T10:44:02.353Z,19488.00
2019-03-25T10:45:02.344Z,17504.00
2019-03-25T10:46:02.315Z,9992.00
2019-03-25T10:47:02.290Z,10432.00
2019-03-25T10:48:02.271Z,13940.00
2019-03-25T10:49:02.256Z,11088.00
2019-03-25T10:50:02.232Z,8500.00
2019-03-25T10:51:02.207Z,7580.00
2019-03-25T10:52:02.196Z,8368.00
2019-03-25T10:53:02.168Z,13020.00
2019-03-25T10:54:02.147Z,8600.00
2019-03-25T10:55:02.136Z,5992.00
2019-03-25T10:56:02.115Z,4212.00
2019-03-25T10:57:02.091Z,4180.00
2019-03-25T10:58:02.071Z,3892.00
2019-03-25T10:59:02.053Z,5040.00
2019-03-25T11:00:02.028Z,5584.00
2019-03-25T11:01:02.011Z,4856.00
2019-03-25T11:02:01.990Z,4540.00
2019-03-25T11:03:01.979Z,5888.00
2019-03-25T11:04:01.951Z,7020.00
2019-03-25T11:05:01.933Z,10324.00
2019-03-25T11:06:01.912Z,11584.00
2019-03-25T11:07:01.892Z,9364.00
2019-03-25T11:08:01.872Z,9752.00
2019-03-25T11:09:01.857Z,11312.00
2019-03-25T11:10:01.835Z,16464.00
2019-03-25T11:11:01.811Z,22432.00
2019-03-25T11:12:01.792Z,75456.00
2019-03-25T11:13:01.772Z,71360.00
2019-03-25T11:14:01.751Z,83296.00
2019-03-25T11:15:01.751Z,66592.00
2019-03-25T11:16:01.726Z,37664.00
2019-03-25T11:17:01.693Z,19520.00
2019-03-25T11:18:01.681Z,76992.00
2019-03-25T11:19:01.659Z,44672.00
2019-03-25T11:20:01.639Z,57824.00
2019-03-25T11:21:01.625Z,67040.00
2019-03-25T11:22:01.604Z,56864.00
2019-03-25T11:23:01.587Z,47008.00
2019-03-25T11:24:01.570Z,44352.00
2019-03-25T11:25:01.560Z,76416.00
2019-03-25T11:26:01.535Z,27072.00
2019-03-25T11:27:01.516Z,11044.00
2019-03-25T11:28:01.501Z,5684.00
2019-03-25T11:29:08.439Z,4960.00
2019-03-25T11:30:01.469Z,5856.00
2019-03-25T11:31:01.457Z,5608.00
2019-03-25T11:32:01.441Z,5200.00
2019-03-25T11:33:01.452Z,4724.00
2019-03-25T11:34:01.404Z,6232.00
2019-03-25T11:35:01.397Z,8340.00
2019-03-25T11:36:02.788Z,9692.00
2019-03-25T11:37:01.365Z,7892.00
2019-03-25T11:38:01.341Z,8568.00
2019-03-25T11:39:01.330Z,6412.00
2019-03-25T11:40:01.310Z,5716.00
2019-03-25T11:41:01.295Z,6268.00
2019-03-25T11:42:01.277Z,5720.00
2019-03-25T11:43:01.259Z,6660.00
2019-03-25T11:44:01.245Z,11504.00
2019-03-25T11:45:01.227Z,15852.00
2019-03-25T11:46:01.212Z,61280.00
2019-03-25T11:47:01.192Z,60128.00
2019-03-25T11:48:01.174Z,16668.00
2019-03-25T11:49:01.159Z,14324.00
2019-03-25T11:50:01.143Z,16436.00
2019-03-25T11:51:01.126Z,10024.00
2019-03-25T11:52:01.107Z,5724.00
2019-03-25T11:53:01.096Z,5420.00
2019-03-25T11:54:01.077Z,6888.00
2019-03-25T11:55:01.065Z,8340.00
2019-03-25T11:56:01.042Z,7080.00
2019-03-25T11:57:01.029Z,5620.00
2019-03-25T11:58:01.007Z,5924.00
2019-03-25T11:59:02.861Z,11476.00
2019-03-25T12:00:00.981Z,21888.00
2019-03-25T12:01:00.959Z,68032.00
2019-03-25T12:02:00.947Z,92480.00
2019-03-25T12:03:00.932Z,87744.00
2019-03-25T12:04:00.913Z,86432.00
2019-03-25T12:05:00.901Z,89472.00
2019-03-25T12:06:00.879Z,92544.00
2019-03-25T12:07:00.869Z,90592.00
2019-03-25T12:08:00.853Z,85760.00
2019-03-25T12:09:00.840Z,82080.00
2019-03-25T12:10:00.823Z,81600.00
2019-03-25T12:11:00.811Z,82912.00
2019-03-25T12:12:00.796Z,85408.00
2019-03-25T12:13:00.787Z,84320.00
2019-03-25T12:14:00.771Z,80608.00
2019-03-25T12:15:01.705Z,78784.00
2019-03-25T12:16:00.746Z,76800.00
2019-03-25T12:17:00.735Z,78240.00
2019-03-25T12:18:00.730Z,81760.00
2019-03-25T12:19:00.716Z,80736.00
2019-03-25T12:20:00.709Z,81792.00
2019-03-25T12:21:00.693Z,82464.00
2019-03-25T12:22:00.685Z,80000.00
2019-03-25T12:23:00.677Z,78848.00
2019-03-25T12:24:00.668Z,79776.00
2019-03-25T12:25:01.870Z,77216.00
2019-03-25T12:26:00.649Z,80608.00
2019-03-25T12:27:00.647Z,83072.00
2019-03-25T12:28:00.634Z,84480.00
2019-03-25T12:29:00.648Z,89024.00
2019-03-25T12:30:00.616Z,94848.00
2019-03-25T12:31:00.611Z,94048.00
2019-03-25T12:32:00.601Z,74080.00
2019-03-25T12:33:04.308Z,74048.00
2019-03-25T12:34:00.589Z,77920.00